sensor_id;sensor_type;location;lat;lon;timestamp;P1;durP1;ratioP1;P2;durP2;ratioP2
1204;SDS011;592;48.764;9.174;2023-04-06T00:02:15;14.80;;;9.73;;
1204;SDS011;592;48.764;9.174;2023-04-06T00:04:43;14.13;;;10.00;;
1204;SDS011;592;48.764;9.174;2023-04-06T00:07:10;14.90;;;9.40;;
1204;SDS011;592;48.764;9.174;2023-04-06T00:09:37;14.00;;;10.27;;
1204;SDS011;592;48.764;9.174;2023-04-06T00:12:04;18.80;;;10.07;;
1204;SDS011;592;48.764;9.174;2023-04-06T00:14:31;13.93;;;9.30;;
1204;SDS011;592;48.764;9.174;2023-04-06T00:16:57;13.67;;;9.63;;
1204;SDS011;592;48.764;9.174;2023-04-06T00:19:24;14.70;;;9.67;;
1204;SDS011;592;48.764;9.174;2023-04-06T00:21:52;15.77;;;9.87;;
1204;SDS011;592;48.764;9.174;2023-04-06T00:24:19;16.70;;;9.73;;
1204;SDS011;592;48.764;9.174;2023-04-06T00:26:46;17.30;;;9.90;;
1204;SDS011;592;48.764;9.174;2023-04-06T00:29:12;16.10;;;9.63;;
1204;SDS011;592;48.764;9.174;2023-04-06T00:31:40;16.20;;;10.10;;
1204;SDS011;592;48.764;9.174;2023-04-06T00:34:06;19.60;;;10.03;;
1204;SDS011;592;48.764;9.174;2023-04-06T00:36:33;17.90;;;9.80;;
1204;SDS011;592;48.764;9.174;2023-04-06T00:39:01;12.63;;;9.23;;
1204;SDS011;592;48.764;9.174;2023-04-06T00:41:28;13.70;;;9.30;;
1204;SDS011;592;48.764;9.174;2023-04-06T00:43:54;14.40;;;9.40;;
1204;SDS011;592;48.764;9.174;2023-04-06T00:46:22;16.10;;;9.53;;
1204;SDS011;592;48.764;9.174;2023-04-06T00:48:49;14.70;;;9.70;;
1204;SDS011;592;48.764;9.174;2023-04-06T00:51:16;17.17;;;9.40;;
1204;SDS011;592;48.764;9.174;2023-04-06T00:53:42;14.10;;;10.10;;
1204;SDS011;592;48.764;9.174;2023-04-06T00:56:11;15.57;;;10.10;;
1204;SDS011;592;48.764;9.174;2023-04-06T00:58:38;16.97;;;10.30;;
1204;SDS011;592;48.764;9.174;2023-04-06T01:01:05;14.67;;;9.90;;
1204;SDS011;592;48.764;9.174;2023-04-06T01:03:32;17.20;;;11.47;;
1204;SDS011;592;48.764;9.174;2023-04-06T01:05:59;15.50;;;10.77;;
1204;SDS011;592;48.764;9.174;2023-04-06T01:08:25;17.80;;;10.20;;
1204;SDS011;592;48.764;9.174;2023-04-06T01:10:53;15.53;;;9.53;;
1204;SDS011;592;48.764;9.174;2023-04-06T01:13:22;14.93;;;9.53;;
1204;SDS011;592;48.764;9.174;2023-04-06T01:15:48;19.60;;;11.03;;
1204;SDS011;592;48.764;9.174;2023-04-06T01:18:15;16.27;;;9.67;;
1204;SDS011;592;48.764;9.174;2023-04-06T01:20:42;15.27;;;10.77;;
1204;SDS011;592;48.764;9.174;2023-04-06T01:23:10;13.20;;;9.40;;
1204;SDS011;592;48.764;9.174;2023-04-06T01:25:36;14.87;;;9.90;;
1204;SDS011;592;48.764;9.174;2023-04-06T01:28:03;15.63;;;9.47;;
1204;SDS011;592;48.764;9.174;2023-04-06T01:30:30;14.77;;;9.70;;
1204;SDS011;592;48.764;9.174;2023-04-06T01:32:56;15.80;;;10.43;;
1204;SDS011;592;48.764;9.174;2023-04-06T01:35:25;15.17;;;10.43;;
1204;SDS011;592;48.764;9.174;2023-04-06T01:37:53;14.80;;;9.50;;
1204;SDS011;592;48.764;9.174;2023-04-06T01:40:21;14.97;;;10.97;;
1204;SDS011;592;48.764;9.174;2023-04-06T01:42:48;19.07;;;10.70;;
1204;SDS011;592;48.764;9.174;2023-04-06T01:45:15;17.03;;;11.20;;
1204;SDS011;592;48.764;9.174;2023-04-06T01:47:41;13.40;;;9.47;;
1204;SDS011;592;48.764;9.174;2023-04-06T01:50:08;14.37;;;10.23;;
1204;SDS011;592;48.764;9.174;2023-04-06T01:52:37;15.37;;;10.27;;
1204;SDS011;592;48.764;9.174;2023-04-06T01:55:04;13.70;;;10.10;;
1204;SDS011;592;48.764;9.174;2023-04-06T01:57:32;16.13;;;10.30;;
1204;SDS011;592;48.764;9.174;2023-04-06T01:59:59;16.70;;;10.90;;
1204;SDS011;592;48.764;9.174;2023-04-06T02:02:26;17.53;;;11.87;;
1204;SDS011;592;48.764;9.174;2023-04-06T02:04:53;14.13;;;9.97;;
1204;SDS011;592;48.764;9.174;2023-04-06T02:07:20;16.43;;;10.23;;
1204;SDS011;592;48.764;9.174;2023-04-06T02:09:46;18.10;;;10.73;;
1204;SDS011;592;48.764;9.174;2023-04-06T02:12:13;16.37;;;10.13;;
1204;SDS011;592;48.764;9.174;2023-04-06T02:14:41;18.03;;;10.40;;
1204;SDS011;592;48.764;9.174;2023-04-06T02:17:08;15.30;;;10.90;;
1204;SDS011;592;48.764;9.174;2023-04-06T02:19:35;16.67;;;10.17;;
1204;SDS011;592;48.764;9.174;2023-04-06T02:22:01;15.30;;;10.57;;
1204;SDS011;592;48.764;9.174;2023-04-06T02:24:28;14.40;;;9.93;;
1204;SDS011;592;48.764;9.174;2023-04-06T02:26:55;16.43;;;9.50;;
1204;SDS011;592;48.764;9.174;2023-04-06T02:29:21;19.50;;;9.77;;
1204;SDS011;592;48.764;9.174;2023-04-06T02:31:49;18.13;;;11.50;;
1204;SDS011;592;48.764;9.174;2023-04-06T02:34:16;16.70;;;10.67;;
1204;SDS011;592;48.764;9.174;2023-04-06T02:36:43;15.63;;;10.70;;
1204;SDS011;592;48.764;9.174;2023-04-06T02:39:10;15.30;;;10.07;;
1204;SDS011;592;48.764;9.174;2023-04-06T02:41:37;16.90;;;10.77;;
1204;SDS011;592;48.764;9.174;2023-04-06T02:44:05;14.27;;;10.00;;
1204;SDS011;592;48.764;9.174;2023-04-06T02:46:33;14.40;;;9.80;;
1204;SDS011;592;48.764;9.174;2023-04-06T02:49:01;13.83;;;10.10;;
1204;SDS011;592;48.764;9.174;2023-04-06T02:51:28;16.17;;;10.00;;
1204;SDS011;592;48.764;9.174;2023-04-06T02:53:54;17.63;;;10.80;;
1204;SDS011;592;48.764;9.174;2023-04-06T02:56:21;15.20;;;10.60;;
1204;SDS011;592;48.764;9.174;2023-04-06T02:58:48;16.30;;;10.37;;
1204;SDS011;592;48.764;9.174;2023-04-06T03:01:14;15.30;;;10.70;;
1204;SDS011;592;48.764;9.174;2023-04-06T03:03:41;14.80;;;9.60;;
1204;SDS011;592;48.764;9.174;2023-04-06T03:06:09;16.10;;;10.73;;
1204;SDS011;592;48.764;9.174;2023-04-06T03:08:36;17.97;;;10.50;;
1204;SDS011;592;48.764;9.174;2023-04-06T03:11:03;18.27;;;10.70;;
1204;SDS011;592;48.764;9.174;2023-04-06T03:13:30;17.57;;;10.67;;
1204;SDS011;592;48.764;9.174;2023-04-06T03:15:56;15.60;;;10.70;;
1204;SDS011;592;48.764;9.174;2023-04-06T03:18:23;17.33;;;11.00;;
1204;SDS011;592;48.764;9.174;2023-04-06T03:20:51;15.70;;;10.70;;
1204;SDS011;592;48.764;9.174;2023-04-06T03:23:20;17.83;;;10.00;;
1204;SDS011;592;48.764;9.174;2023-04-06T03:25:47;15.13;;;10.10;;
1204;SDS011;592;48.764;9.174;2023-04-06T03:28:14;16.07;;;10.73;;
1204;SDS011;592;48.764;9.174;2023-04-06T03:30:41;17.13;;;10.93;;
1204;SDS011;592;48.764;9.174;2023-04-06T03:33:07;15.23;;;10.43;;
1204;SDS011;592;48.764;9.174;2023-04-06T03:35:34;17.10;;;10.80;;
1204;SDS011;592;48.764;9.174;2023-04-06T03:38:01;16.57;;;10.50;;
1204;SDS011;592;48.764;9.174;2023-04-06T03:40:30;15.80;;;10.03;;
1204;SDS011;592;48.764;9.174;2023-04-06T03:42:57;16.87;;;12.07;;
1204;SDS011;592;48.764;9.174;2023-04-06T03:45:23;17.60;;;10.57;;
1204;SDS011;592;48.764;9.174;2023-04-06T03:47:50;15.70;;;10.30;;
1204;SDS011;592;48.764;9.174;2023-04-06T03:50:17;18.40;;;11.10;;
1204;SDS011;592;48.764;9.174;2023-04-06T03:52:43;17.27;;;10.53;;
1204;SDS011;592;48.764;9.174;2023-04-06T03:55:10;14.57;;;10.20;;
1204;SDS011;592;48.764;9.174;2023-04-06T03:57:38;17.40;;;11.43;;
1204;SDS011;592;48.764;9.174;2023-04-06T04:00:06;17.90;;;11.53;;
1204;SDS011;592;48.764;9.174;2023-04-06T04:02:34;16.43;;;10.73;;
1204;SDS011;592;48.764;9.174;2023-04-06T04:05:00;18.60;;;10.70;;
1204;SDS011;592;48.764;9.174;2023-04-06T04:07:27;18.07;;;11.37;;
1204;SDS011;592;48.764;9.174;2023-04-06T04:09:54;14.00;;;10.20;;
1204;SDS011;592;48.764;9.174;2023-04-06T04:12:21;15.40;;;10.50;;
1204;SDS011;592;48.764;9.174;2023-04-06T04:14:49;15.97;;;11.03;;
1204;SDS011;592;48.764;9.174;2023-04-06T04:17:16;16.37;;;10.03;;
1204;SDS011;592;48.764;9.174;2023-04-06T04:19:42;16.77;;;11.70;;
1204;SDS011;592;48.764;9.174;2023-04-06T04:22:09;16.37;;;10.97;;
1204;SDS011;592;48.764;9.174;2023-04-06T04:24:36;18.33;;;10.83;;
1204;SDS011;592;48.764;9.174;2023-04-06T04:27:02;19.57;;;12.47;;
1204;SDS011;592;48.764;9.174;2023-04-06T04:29:29;14.47;;;10.57;;
1204;SDS011;592;48.764;9.174;2023-04-06T04:31:57;15.37;;;10.80;;
1204;SDS011;592;48.764;9.174;2023-04-06T04:34:24;15.40;;;10.77;;
1204;SDS011;592;48.764;9.174;2023-04-06T04:36:51;17.37;;;11.07;;
1204;SDS011;592;48.764;9.174;2023-04-06T04:39:18;19.97;;;11.70;;
1204;SDS011;592;48.764;9.174;2023-04-06T04:41:44;16.53;;;10.97;;
1204;SDS011;592;48.764;9.174;2023-04-06T04:44:11;20.43;;;11.90;;
1204;SDS011;592;48.764;9.174;2023-04-06T04:46:38;16.57;;;11.03;;
1204;SDS011;592;48.764;9.174;2023-04-06T04:49:07;15.37;;;9.73;;
1204;SDS011;592;48.764;9.174;2023-04-06T04:51:34;15.60;;;10.30;;
1204;SDS011;592;48.764;9.174;2023-04-06T04:54:01;19.07;;;10.50;;
1204;SDS011;592;48.764;9.174;2023-04-06T04:56:28;17.60;;;9.90;;
1204;SDS011;592;48.764;9.174;2023-04-06T04:58:54;15.67;;;10.17;;
1204;SDS011;592;48.764;9.174;2023-04-06T05:01:21;17.63;;;11.30;;
1204;SDS011;592;48.764;9.174;2023-04-06T05:03:48;16.70;;;11.30;;
1204;SDS011;592;48.764;9.174;2023-04-06T05:06:16;19.23;;;11.30;;
1204;SDS011;592;48.764;9.174;2023-04-06T05:08:43;14.57;;;10.80;;
1204;SDS011;592;48.764;9.174;2023-04-06T05:11:10;16.50;;;11.03;;
1204;SDS011;592;48.764;9.174;2023-04-06T05:13:37;17.73;;;12.03;;
1204;SDS011;592;48.764;9.174;2023-04-06T05:16:04;19.13;;;11.17;;
1204;SDS011;592;48.764;9.174;2023-04-06T05:18:31;19.30;;;11.27;;
1204;SDS011;592;48.764;9.174;2023-04-06T05:20:58;24.30;;;13.30;;
1204;SDS011;592;48.764;9.174;2023-04-06T05:23:26;18.97;;;11.57;;
1204;SDS011;592;48.764;9.174;2023-04-06T05:25:53;19.40;;;11.50;;
1204;SDS011;592;48.764;9.174;2023-04-06T05:28:21;14.20;;;10.23;;
1204;SDS011;592;48.764;9.174;2023-04-06T05:30:48;17.20;;;11.03;;
1204;SDS011;592;48.764;9.174;2023-04-06T05:33:15;19.30;;;11.80;;
1204;SDS011;592;48.764;9.174;2023-04-06T05:35:42;18.73;;;12.77;;
1204;SDS011;592;48.764;9.174;2023-04-06T05:38:08;30.00;;;18.87;;
1204;SDS011;592;48.764;9.174;2023-04-06T05:40:37;17.33;;;12.73;;
1204;SDS011;592;48.764;9.174;2023-04-06T05:43:06;20.30;;;13.10;;
1204;SDS011;592;48.764;9.174;2023-04-06T05:45:33;17.50;;;11.20;;
1204;SDS011;592;48.764;9.174;2023-04-06T05:48:00;17.57;;;11.80;;
1204;SDS011;592;48.764;9.174;2023-04-06T05:50:27;16.17;;;10.27;;
1204;SDS011;592;48.764;9.174;2023-04-06T05:52:54;18.93;;;12.80;;
1204;SDS011;592;48.764;9.174;2023-04-06T05:55:21;22.37;;;14.50;;
1204;SDS011;592;48.764;9.174;2023-04-06T05:57:49;25.37;;;14.53;;
1204;SDS011;592;48.764;9.174;2023-04-06T06:00:16;16.90;;;12.30;;
1204;SDS011;592;48.764;9.174;2023-04-06T06:02:44;18.00;;;12.50;;
1204;SDS011;592;48.764;9.174;2023-04-06T06:05:11;16.73;;;11.60;;
1204;SDS011;592;48.764;9.174;2023-04-06T06:07:38;17.07;;;12.00;;
1204;SDS011;592;48.764;9.174;2023-04-06T06:10:05;21.03;;;11.30;;
1204;SDS011;592;48.764;9.174;2023-04-06T06:12:33;17.13;;;11.70;;
1204;SDS011;592;48.764;9.174;2023-04-06T06:15:01;15.07;;;10.77;;
1204;SDS011;592;48.764;9.174;2023-04-06T06:17:28;20.00;;;12.97;;
1204;SDS011;592;48.764;9.174;2023-04-06T06:19:54;16.53;;;12.40;;
1204;SDS011;592;48.764;9.174;2023-04-06T06:22:21;20.67;;;12.77;;
1204;SDS011;592;48.764;9.174;2023-04-06T06:24:48;20.30;;;12.80;;
1204;SDS011;592;48.764;9.174;2023-04-06T06:27:15;22.53;;;12.00;;
1204;SDS011;592;48.764;9.174;2023-04-06T06:29:42;19.13;;;12.00;;
1204;SDS011;592;48.764;9.174;2023-04-06T06:32:10;20.03;;;12.70;;
1204;SDS011;592;48.764;9.174;2023-04-06T06:34:37;16.07;;;11.60;;
1204;SDS011;592;48.764;9.174;2023-04-06T06:37:06;18.93;;;12.40;;
1204;SDS011;592;48.764;9.174;2023-04-06T06:39:33;19.73;;;12.37;;
1204;SDS011;592;48.764;9.174;2023-04-06T06:41:59;17.57;;;12.23;;
1204;SDS011;592;48.764;9.174;2023-04-06T06:44:26;18.00;;;11.37;;
1204;SDS011;592;48.764;9.174;2023-04-06T06:46:53;17.57;;;12.40;;
1204;SDS011;592;48.764;9.174;2023-04-06T06:49:22;18.20;;;10.90;;
1204;SDS011;592;48.764;9.174;2023-04-06T06:51:48;18.13;;;11.90;;
1204;SDS011;592;48.764;9.174;2023-04-06T06:54:15;17.23;;;11.70;;
1204;SDS011;592;48.764;9.174;2023-04-06T06:56:42;23.80;;;12.53;;
1204;SDS011;592;48.764;9.174;2023-04-06T06:59:08;16.90;;;11.43;;
1204;SDS011;592;48.764;9.174;2023-04-06T07:01:35;19.83;;;12.00;;
1204;SDS011;592;48.764;9.174;2023-04-06T07:04:02;16.10;;;11.37;;
1204;SDS011;592;48.764;9.174;2023-04-06T07:06:34;16.03;;;12.13;;
1204;SDS011;592;48.764;9.174;2023-04-06T07:09:01;22.63;;;12.50;;
1204;SDS011;592;48.764;9.174;2023-04-06T07:11:28;20.03;;;12.60;;
1204;SDS011;592;48.764;9.174;2023-04-06T07:13:56;17.37;;;11.57;;
1204;SDS011;592;48.764;9.174;2023-04-06T07:16:22;18.07;;;12.43;;
1204;SDS011;592;48.764;9.174;2023-04-06T07:18:49;18.87;;;12.90;;
1204;SDS011;592;48.764;9.174;2023-04-06T07:21:16;16.80;;;12.30;;
1204;SDS011;592;48.764;9.174;2023-04-06T07:23:44;16.37;;;11.27;;
1204;SDS011;592;48.764;9.174;2023-04-06T07:26:13;26.00;;;11.40;;
1204;SDS011;592;48.764;9.174;2023-04-06T07:28:39;15.47;;;11.60;;
1204;SDS011;592;48.764;9.174;2023-04-06T07:31:06;20.20;;;13.00;;
1204;SDS011;592;48.764;9.174;2023-04-06T07:33:33;18.53;;;13.00;;
1204;SDS011;592;48.764;9.174;2023-04-06T07:36:00;18.40;;;12.70;;
1204;SDS011;592;48.764;9.174;2023-04-06T07:38:26;28.70;;;12.20;;
1204;SDS011;592;48.764;9.174;2023-04-06T07:40:54;19.60;;;11.90;;
1204;SDS011;592;48.764;9.174;2023-04-06T07:43:21;21.23;;;12.90;;
1204;SDS011;592;48.764;9.174;2023-04-06T07:45:48;19.93;;;12.17;;
1204;SDS011;592;48.764;9.174;2023-04-06T07:48:15;20.40;;;12.67;;
1204;SDS011;592;48.764;9.174;2023-04-06T07:50:42;20.10;;;12.27;;
1204;SDS011;592;48.764;9.174;2023-04-06T07:53:08;29.57;;;17.40;;
1204;SDS011;592;48.764;9.174;2023-04-06T07:55:35;17.03;;;12.20;;
1204;SDS011;592;48.764;9.174;2023-04-06T07:58:06;20.93;;;13.40;;
1204;SDS011;592;48.764;9.174;2023-04-06T08:00:33;17.67;;;12.30;;
1204;SDS011;592;48.764;9.174;2023-04-06T08:03:00;18.40;;;12.67;;
1204;SDS011;592;48.764;9.174;2023-04-06T08:05:27;20.03;;;12.80;;
1204;SDS011;592;48.764;9.174;2023-04-06T08:07:55;22.93;;;13.10;;
1204;SDS011;592;48.764;9.174;2023-04-06T08:10:22;20.13;;;12.77;;
1204;SDS011;592;48.764;9.174;2023-04-06T08:12:49;16.87;;;12.30;;
1204;SDS011;592;48.764;9.174;2023-04-06T08:15:17;18.40;;;12.30;;
1204;SDS011;592;48.764;9.174;2023-04-06T08:17:44;23.30;;;13.07;;
1204;SDS011;592;48.764;9.174;2023-04-06T08:20:11;20.17;;;12.60;;
1204;SDS011;592;48.764;9.174;2023-04-06T08:22:37;23.63;;;14.60;;
1204;SDS011;592;48.764;9.174;2023-04-06T08:25:05;22.13;;;15.60;;
1204;SDS011;592;48.764;9.174;2023-04-06T08:27:32;25.57;;;15.30;;
1204;SDS011;592;48.764;9.174;2023-04-06T08:29:59;21.63;;;14.43;;
1204;SDS011;592;48.764;9.174;2023-04-06T08:32:28;21.10;;;15.50;;
1204;SDS011;592;48.764;9.174;2023-04-06T08:34:55;25.60;;;16.10;;
1204;SDS011;592;48.764;9.174;2023-04-06T08:37:22;20.50;;;14.73;;
1204;SDS011;592;48.764;9.174;2023-04-06T08:39:49;20.00;;;13.80;;
1204;SDS011;592;48.764;9.174;2023-04-06T08:42:18;26.60;;;14.43;;
1204;SDS011;592;48.764;9.174;2023-04-06T08:44:47;23.07;;;15.83;;
1204;SDS011;592;48.764;9.174;2023-04-06T08:47:16;23.70;;;14.40;;
1204;SDS011;592;48.764;9.174;2023-04-06T08:49:44;23.13;;;13.60;;
1204;SDS011;592;48.764;9.174;2023-04-06T08:52:12;20.10;;;13.20;;
1204;SDS011;592;48.764;9.174;2023-04-06T08:54:41;19.37;;;13.93;;
1204;SDS011;592;48.764;9.174;2023-04-06T08:57:08;21.30;;;14.07;;
1204;SDS011;592;48.764;9.174;2023-04-06T08:59:36;21.20;;;14.43;;
1204;SDS011;592;48.764;9.174;2023-04-06T09:02:03;20.73;;;14.70;;
1204;SDS011;592;48.764;9.174;2023-04-06T09:04:31;20.50;;;14.10;;
1204;SDS011;592;48.764;9.174;2023-04-06T09:07:00;20.17;;;13.80;;
1204;SDS011;592;48.764;9.174;2023-04-06T09:09:27;27.00;;;14.97;;
1204;SDS011;592;48.764;9.174;2023-04-06T09:11:55;20.23;;;13.03;;
1204;SDS011;592;48.764;9.174;2023-04-06T09:14:33;18.30;;;13.60;;
1204;SDS011;592;48.764;9.174;2023-04-06T09:17:01;22.10;;;13.60;;
1204;SDS011;592;48.764;9.174;2023-04-06T09:19:28;18.93;;;12.63;;
1204;SDS011;592;48.764;9.174;2023-04-06T09:22:02;21.07;;;12.23;;
1204;SDS011;592;48.764;9.174;2023-04-06T09:24:38;20.33;;;13.40;;
1204;SDS011;592;48.764;9.174;2023-04-06T09:27:06;21.33;;;13.57;;
1204;SDS011;592;48.764;9.174;2023-04-06T09:29:33;18.83;;;12.70;;
1204;SDS011;592;48.764;9.174;2023-04-06T09:32:02;18.60;;;13.47;;
1204;SDS011;592;48.764;9.174;2023-04-06T09:34:30;19.50;;;12.50;;
1204;SDS011;592;48.764;9.174;2023-04-06T09:36:57;19.90;;;12.83;;
1204;SDS011;592;48.764;9.174;2023-04-06T09:39:25;20.87;;;13.80;;
1204;SDS011;592;48.764;9.174;2023-04-06T09:41:52;17.27;;;11.27;;
1204;SDS011;592;48.764;9.174;2023-04-06T09:44:20;18.47;;;13.20;;
1204;SDS011;592;48.764;9.174;2023-04-06T09:46:48;20.83;;;13.33;;
1204;SDS011;592;48.764;9.174;2023-04-06T09:49:19;15.63;;;12.47;;
1204;SDS011;592;48.764;9.174;2023-04-06T09:51:47;19.67;;;13.20;;
1204;SDS011;592;48.764;9.174;2023-04-06T09:54:19;18.43;;;13.13;;
1204;SDS011;592;48.764;9.174;2023-04-06T09:56:51;16.30;;;10.43;;
1204;SDS011;592;48.764;9.174;2023-04-06T09:59:24;15.73;;;10.10;;
1204;SDS011;592;48.764;9.174;2023-04-06T10:01:56;14.17;;;10.10;;
1204;SDS011;592;48.764;9.174;2023-04-06T10:04:27;20.00;;;11.77;;
1204;SDS011;592;48.764;9.174;2023-04-06T10:07:02;13.77;;;10.20;;
1204;SDS011;592;48.764;9.174;2023-04-06T10:09:31;15.67;;;10.20;;
1204;SDS011;592;48.764;9.174;2023-04-06T10:12:03;14.60;;;9.83;;
1204;SDS011;592;48.764;9.174;2023-04-06T10:14:31;14.70;;;9.57;;
1204;SDS011;592;48.764;9.174;2023-04-06T10:17:02;13.67;;;10.10;;
1204;SDS011;592;48.764;9.174;2023-04-06T10:19:30;13.50;;;9.90;;
1204;SDS011;592;48.764;9.174;2023-04-06T10:22:02;14.73;;;10.30;;
1204;SDS011;592;48.764;9.174;2023-04-06T10:24:33;14.03;;;9.60;;
1204;SDS011;592;48.764;9.174;2023-04-06T10:27:01;14.93;;;9.97;;
1204;SDS011;592;48.764;9.174;2023-04-06T10:29:31;12.60;;;9.30;;
1204;SDS011;592;48.764;9.174;2023-04-06T10:32:09;15.00;;;10.20;;
1204;SDS011;592;48.764;9.174;2023-04-06T10:34:35;17.97;;;9.30;;
1204;SDS011;592;48.764;9.174;2023-04-06T10:37:10;17.53;;;9.03;;
1204;SDS011;592;48.764;9.174;2023-04-06T10:39:45;15.23;;;9.70;;
1204;SDS011;592;48.764;9.174;2023-04-06T10:42:12;13.30;;;9.70;;
1204;SDS011;592;48.764;9.174;2023-04-06T10:44:43;13.33;;;9.80;;
1204;SDS011;592;48.764;9.174;2023-04-06T10:47:15;13.00;;;9.57;;
1204;SDS011;592;48.764;9.174;2023-04-06T10:49:43;16.00;;;10.30;;
1204;SDS011;592;48.764;9.174;2023-04-06T10:52:09;13.67;;;10.07;;
1204;SDS011;592;48.764;9.174;2023-04-06T10:54:38;14.57;;;9.73;;
1204;SDS011;592;48.764;9.174;2023-04-06T10:57:07;15.40;;;9.37;;
1204;SDS011;592;48.764;9.174;2023-04-06T10:59:34;16.50;;;10.97;;
1204;SDS011;592;48.764;9.174;2023-04-06T11:02:02;13.37;;;10.00;;
1204;SDS011;592;48.764;9.174;2023-04-06T11:04:29;12.83;;;9.63;;
1204;SDS011;592;48.764;9.174;2023-04-06T11:06:56;14.37;;;10.20;;
1204;SDS011;592;48.764;9.174;2023-04-06T11:09:23;14.50;;;9.90;;
1204;SDS011;592;48.764;9.174;2023-04-06T11:11:54;12.90;;;9.40;;
1204;SDS011;592;48.764;9.174;2023-04-06T11:14:22;13.40;;;9.90;;
1204;SDS011;592;48.764;9.174;2023-04-06T11:16:49;12.70;;;9.07;;
1204;SDS011;592;48.764;9.174;2023-04-06T11:19:17;14.13;;;9.60;;
1204;SDS011;592;48.764;9.174;2023-04-06T11:21:44;14.37;;;10.43;;
1204;SDS011;592;48.764;9.174;2023-04-06T11:24:13;13.50;;;9.17;;
1204;SDS011;592;48.764;9.174;2023-04-06T11:26:42;16.70;;;10.63;;
1204;SDS011;592;48.764;9.174;2023-04-06T11:29:11;12.90;;;10.00;;
1204;SDS011;592;48.764;9.174;2023-04-06T11:31:42;14.60;;;10.50;;
1204;SDS011;592;48.764;9.174;2023-04-06T11:34:12;13.93;;;9.90;;
1204;SDS011;592;48.764;9.174;2023-04-06T11:36:41;12.90;;;8.83;;
1204;SDS011;592;48.764;9.174;2023-04-06T11:39:09;15.37;;;9.50;;
1204;SDS011;592;48.764;9.174;2023-04-06T11:41:36;13.50;;;8.83;;
1204;SDS011;592;48.764;9.174;2023-04-06T11:44:03;16.07;;;9.00;;
1204;SDS011;592;48.764;9.174;2023-04-06T11:46:31;11.50;;;9.10;;
1204;SDS011;592;48.764;9.174;2023-04-06T11:48:58;11.33;;;8.60;;
1204;SDS011;592;48.764;9.174;2023-04-06T11:51:25;11.97;;;8.60;;
1204;SDS011;592;48.764;9.174;2023-04-06T11:53:54;12.87;;;8.80;;
1204;SDS011;592;48.764;9.174;2023-04-06T11:56:24;11.90;;;8.57;;
1204;SDS011;592;48.764;9.174;2023-04-06T11:58:52;12.00;;;8.37;;
1204;SDS011;592;48.764;9.174;2023-04-06T12:01:19;13.70;;;9.30;;
1204;SDS011;592;48.764;9.174;2023-04-06T12:03:46;11.80;;;9.00;;
1204;SDS011;592;48.764;9.174;2023-04-06T12:06:13;15.20;;;9.67;;
1204;SDS011;592;48.764;9.174;2023-04-06T12:08:40;12.43;;;8.93;;
1204;SDS011;592;48.764;9.174;2023-04-06T12:11:08;11.73;;;8.83;;
1204;SDS011;592;48.764;9.174;2023-04-06T12:13:35;12.10;;;9.30;;
1204;SDS011;592;48.764;9.174;2023-04-06T12:16:02;14.07;;;8.70;;
1204;SDS011;592;48.764;9.174;2023-04-06T12:18:29;12.13;;;8.57;;
1204;SDS011;592;48.764;9.174;2023-04-06T12:20:56;10.50;;;8.50;;
1204;SDS011;592;48.764;9.174;2023-04-06T12:23:23;11.80;;;8.10;;
1204;SDS011;592;48.764;9.174;2023-04-06T12:25:50;14.97;;;9.63;;
1204;SDS011;592;48.764;9.174;2023-04-06T12:28:18;11.13;;;8.10;;
1204;SDS011;592;48.764;9.174;2023-04-06T12:30:48;13.43;;;8.63;;
1204;SDS011;592;48.764;9.174;2023-04-06T12:33:15;13.67;;;8.60;;
1204;SDS011;592;48.764;9.174;2023-04-06T12:35:41;13.10;;;9.50;;
1204;SDS011;592;48.764;9.174;2023-04-06T12:38:08;11.80;;;8.23;;
1204;SDS011;592;48.764;9.174;2023-04-06T12:40:36;13.97;;;9.73;;
1204;SDS011;592;48.764;9.174;2023-04-06T12:43:03;13.47;;;7.70;;
1204;SDS011;592;48.764;9.174;2023-04-06T12:45:31;15.20;;;8.53;;
1204;SDS011;592;48.764;9.174;2023-04-06T12:47:58;12.03;;;8.50;;
1204;SDS011;592;48.764;9.174;2023-04-06T12:50:25;15.20;;;10.00;;
1204;SDS011;592;48.764;9.174;2023-04-06T12:52:52;14.63;;;9.83;;
1204;SDS011;592;48.764;9.174;2023-04-06T12:55:19;10.10;;;8.03;;
1204;SDS011;592;48.764;9.174;2023-04-06T12:57:46;11.03;;;7.53;;
1204;SDS011;592;48.764;9.174;2023-04-06T13:00:13;11.20;;;8.13;;
1204;SDS011;592;48.764;9.174;2023-04-06T13:02:42;11.83;;;8.47;;
1204;SDS011;592;48.764;9.174;2023-04-06T13:05:12;11.13;;;8.13;;
1204;SDS011;592;48.764;9.174;2023-04-06T13:07:39;12.10;;;7.57;;
1204;SDS011;592;48.764;9.174;2023-04-06T13:10:06;12.47;;;8.10;;
1204;SDS011;592;48.764;9.174;2023-04-06T13:12:34;11.17;;;7.93;;
1204;SDS011;592;48.764;9.174;2023-04-06T13:15:01;10.90;;;8.27;;
1204;SDS011;592;48.764;9.174;2023-04-06T13:17:28;10.37;;;7.67;;
1204;SDS011;592;48.764;9.174;2023-04-06T13:19:57;10.77;;;7.70;;
1204;SDS011;592;48.764;9.174;2023-04-06T13:22:24;13.07;;;8.90;;
1204;SDS011;592;48.764;9.174;2023-04-06T13:24:51;10.43;;;7.17;;
1204;SDS011;592;48.764;9.174;2023-04-06T13:27:17;15.87;;;8.83;;
1204;SDS011;592;48.764;9.174;2023-04-06T13:29:44;12.30;;;7.27;;
1204;SDS011;592;48.764;9.174;2023-04-06T13:32:11;11.00;;;7.97;;
1204;SDS011;592;48.764;9.174;2023-04-06T13:34:38;13.33;;;8.30;;
1204;SDS011;592;48.764;9.174;2023-04-06T13:37:06;12.50;;;8.43;;
1204;SDS011;592;48.764;9.174;2023-04-06T13:39:33;13.53;;;8.60;;
1204;SDS011;592;48.764;9.174;2023-04-06T13:42:01;11.17;;;8.03;;
1204;SDS011;592;48.764;9.174;2023-04-06T13:44:28;12.07;;;8.53;;
1204;SDS011;592;48.764;9.174;2023-04-06T13:46:55;11.20;;;8.10;;
1204;SDS011;592;48.764;9.174;2023-04-06T13:49:23;10.40;;;8.70;;
1204;SDS011;592;48.764;9.174;2023-04-06T13:51:50;11.07;;;8.30;;
1204;SDS011;592;48.764;9.174;2023-04-06T13:54:19;10.77;;;8.23;;
1204;SDS011;592;48.764;9.174;2023-04-06T13:56:46;11.10;;;8.30;;
1204;SDS011;592;48.764;9.174;2023-04-06T13:59:13;11.10;;;7.93;;
1204;SDS011;592;48.764;9.174;2023-04-06T14:01:41;13.93;;;9.10;;
1204;SDS011;592;48.764;9.174;2023-04-06T14:04:08;12.20;;;8.33;;
1204;SDS011;592;48.764;9.174;2023-04-06T14:06:35;13.37;;;8.90;;
1204;SDS011;592;48.764;9.174;2023-04-06T14:09:03;11.33;;;8.40;;
1204;SDS011;592;48.764;9.174;2023-04-06T14:11:31;13.17;;;8.50;;
1204;SDS011;592;48.764;9.174;2023-04-06T14:13:58;11.97;;;8.77;;
1204;SDS011;592;48.764;9.174;2023-04-06T14:16:25;15.00;;;9.33;;
1204;SDS011;592;48.764;9.174;2023-04-06T14:18:52;10.80;;;8.30;;
1204;SDS011;592;48.764;9.174;2023-04-06T14:21:20;12.27;;;8.90;;
1204;SDS011;592;48.764;9.174;2023-04-06T14:23:46;10.80;;;8.30;;
1204;SDS011;592;48.764;9.174;2023-04-06T14:26:13;12.27;;;7.83;;
1204;SDS011;592;48.764;9.174;2023-04-06T14:28:41;10.47;;;8.10;;
1204;SDS011;592;48.764;9.174;2023-04-06T14:31:12;11.50;;;8.53;;
1204;SDS011;592;48.764;9.174;2023-04-06T14:33:40;10.13;;;7.67;;
1204;SDS011;592;48.764;9.174;2023-04-06T14:36:08;12.57;;;8.90;;
1204;SDS011;592;48.764;9.174;2023-04-06T14:38:35;16.53;;;8.60;;
1204;SDS011;592;48.764;9.174;2023-04-06T14:41:03;13.00;;;8.30;;
1204;SDS011;592;48.764;9.174;2023-04-06T14:43:30;13.80;;;8.03;;
1204;SDS011;592;48.764;9.174;2023-04-06T14:46:00;12.27;;;9.07;;
1204;SDS011;592;48.764;9.174;2023-04-06T14:48:27;14.17;;;8.63;;
1204;SDS011;592;48.764;9.174;2023-04-06T14:50:54;12.30;;;9.10;;
1204;SDS011;592;48.764;9.174;2023-04-06T14:53:22;13.27;;;9.13;;
1204;SDS011;592;48.764;9.174;2023-04-06T14:55:48;10.20;;;8.00;;
1204;SDS011;592;48.764;9.174;2023-04-06T14:58:16;14.40;;;8.47;;
1204;SDS011;592;48.764;9.174;2023-04-06T15:00:43;12.40;;;8.87;;
1204;SDS011;592;48.764;9.174;2023-04-06T15:03:11;10.87;;;8.13;;
1204;SDS011;592;48.764;9.174;2023-04-06T15:05:38;11.10;;;7.80;;
1204;SDS011;592;48.764;9.174;2023-04-06T15:08:04;11.43;;;8.30;;
1204;SDS011;592;48.764;9.174;2023-04-06T15:10:31;16.33;;;8.50;;